KCIU

Chippewa County International Airport

Sault Ste Marie, Michigan, USA
METAR KCIU 201610Z AUTO 17007KT 10SM OVC016 24/20 A3004 RMK AO2
Observed Flight Rules
Aug-20 @ 16:10 UTC (15 minutes ago) Marginal Visual Flight Rules
Wind Visibility Clouds
170° at 7 knots 10 miles
  • Overcast at 1,600' AGL
Temperatures Readings
Current 24°C / 75°F
Dewpoint 20°C / 68°F
Humidity 78%
Altimeter 30.04" Hg
Pressure 1017 hPa
Elevation 244
METAR KCIU 201610Z AUTO 17007KT 10SM OVC016 24/20 A3004 RMK AO2
Observed Flight Rules
Aug-20 @ 16:10 UTC
(15 minutes ago)
MVFR
Wind Visibility
170° at 7 knots 10 miles
Clouds
  • Overcast at 1,600' AGL
Temperature Dewpoint
24°C / 75°F 20°C / 68°F
Humidity Altimeter Pressure
78% 30.04" Hg 1017 hPa